Time;durP1;ratioP1;P1;durP2;ratioP2;P2;SDS_P1;SDS_P2;PMS_P1;PMS_P2;Temp;Humidity;BMP_temperature;BMP_pressure;BME280_temperature;BME280_humidity;BME280_pressure;Samples;Min_cycle;Max_cycle;Signal;HPM_P1;HPM_P2
2024/04/24 00:02:26;;;;;;;;;;;;;;;4.99;57.71;99734.48;130159;1273;107671;-78
2024/04/24 00:05:30;;;;;;;;;;;;;;;5.03;57.72;99731.44;130139;1263;108736;-78
2024/04/24 00:08:34;;;;;;;;;;;;;;;5.03;57.77;99732.18;130153;1261;106861;-78
2024/04/24 00:11:37;;;;;;;;;;;;;;;5.06;57.71;99724.52;130095;1259;108692;-78
2024/04/24 00:14:41;;;;;;;;;;;;;;;5.08;57.78;99719.89;130192;1262;108803;-78
2024/04/24 00:17:44;;;;;;;;;;;;;;;5.14;57.89;99720.55;130177;1264;108711;-78
2024/04/24 00:20:48;;;;;;;;;;;;;;;5.18;57.87;99715.82;130069;1259;106547;-78
2024/04/24 00:23:52;;;;;;;;;;;;;;;5.18;58.03;99715.56;130156;1264;106450;-79
2024/04/24 00:26:55;;;;;;;;;;;;;;;5.11;58.65;99712.08;130156;1263;106735;-78
2024/04/24 00:29:59;;;;;;;;;;;;;;;5.03;58.64;99704.67;130162;1263;106593;-78
2024/04/24 00:33:03;;;;;;;;;;;;;;;4.97;59.06;99698.00;130173;1273;106940;-78
2024/04/24 00:36:06;;;;;;;;;;;;;;;4.94;58.70;99692.61;130122;1264;107071;-78
2024/04/24 00:39:10;;;;;;;;;;;;;;;4.94;58.71;99689.11;130092;1261;107759;-79
2024/04/24 00:42:19;;;;;;;;;;;;;;;4.98;58.60;99684.16;130144;1263;108138;-78
2024/04/24 00:45:22;;;;;;;;;;;;;;;5.03;58.83;99685.86;130191;1264;108777;-79
2024/04/24 00:48:26;;;;;;;;;;;;;;;5.04;58.85;99678.50;130154;1259;108882;-79
2024/04/24 00:51:30;;;;;;;;;;;;;;;5.07;58.85;99670.16;130117;1264;108406;-79
2024/04/24 00:54:34;;;;;;;;;;;;;;;5.03;59.52;99663.61;130247;1262;107891;-79
2024/04/24 00:57:38;;;;;;;;;;;;;;;5.00;59.24;99665.50;130332;1260;109447;-79
2024/04/24 01:00:41;;;;;;;;;;;;;;;5.00;59.40;99655.95;130419;1262;107721;-79
2024/04/24 01:03:45;;;;;;;;;;;;;;;4.94;60.26;99652.92;130335;1259;107296;-79
2024/04/24 01:06:49;;;;;;;;;;;;;;;4.85;60.83;99651.40;130408;1259;107833;-79
2024/04/24 01:09:53;;;;;;;;;;;;;;;4.78;60.16;99649.42;130412;1262;107181;-79
2024/04/24 01:12:56;;;;;;;;;;;;;;;4.78;59.89;99642.66;130472;1259;108819;-79
2024/04/24 01:16:03;;;;;;;;;;;;;;;4.79;60.00;99641.91;130413;1259;109384;-78
2024/04/24 01:19:07;;;;;;;;;;;;;;;4.78;59.99;99638.96;130419;1264;106676;-78
2024/04/24 01:22:16;;;;;;;;;;;;;;;4.75;61.05;99634.46;130383;1270;106857;-79
2024/04/24 01:25:24;;;;;;;;;;;;;;;4.68;61.16;99635.08;130286;1262;106623;-79
2024/04/24 01:28:28;;;;;;;;;;;;;;;4.63;61.44;99630.70;130288;1259;106338;-79
2024/04/24 01:31:32;;;;;;;;;;;;;;;4.57;61.85;99623.86;130415;1262;106906;-79
2024/04/24 01:34:35;;;;;;;;;;;;;;;4.53;61.27;99624.18;130419;1262;107701;-79
2024/04/24 01:37:39;;;;;;;;;;;;;;;4.55;60.94;99618.20;130370;1262;106761;-78
2024/04/24 01:40:43;;;;;;;;;;;;;;;4.55;60.96;99609.73;130286;1259;108788;-78
2024/04/24 01:43:46;;;;;;;;;;;;;;;4.55;61.19;99598.09;130308;1262;106660;-78
2024/04/24 01:46:50;;;;;;;;;;;;;;;4.51;61.36;99595.97;130380;1262;106635;-79
2024/04/24 01:49:53;;;;;;;;;;;;;;;4.47;62.03;99595.30;130353;1259;106353;-78
2024/04/24 01:52:58;;;;;;;;;;;;;;;4.40;61.78;99595.66;130286;1262;106364;-79
2024/04/24 01:56:02;;;;;;;;;;;;;;;4.38;61.59;99588.29;130310;1262;106866;-79
2024/04/24 01:59:05;;;;;;;;;;;;;;;4.38;61.83;99585.50;130337;1262;107714;-79
2024/04/24 02:02:09;;;;;;;;;;;;;;;4.38;61.73;99583.92;130305;1263;106677;-79
2024/04/24 02:05:12;;;;;;;;;;;;;;;4.36;61.85;99580.70;130349;1262;107641;-79
2024/04/24 02:08:16;;;;;;;;;;;;;;;4.32;61.82;99580.80;130292;1260;107540;-79
2024/04/24 02:11:20;;;;;;;;;;;;;;;4.30;61.85;99578.17;130251;1260;106494;-79
2024/04/24 02:14:23;;;;;;;;;;;;;;;4.29;61.88;99576.34;130323;1262;106657;-79
2024/04/24 02:17:28;;;;;;;;;;;;;;;4.29;62.39;99568.91;130143;1262;106919;-79
2024/04/24 02:20:32;;;;;;;;;;;;;;;4.24;62.18;99567.83;130168;1259;105738;-79
2024/04/24 02:23:38;;;;;;;;;;;;;;;4.22;62.18;99560.39;130190;1260;108746;-78
2024/04/24 02:26:42;;;;;;;;;;;;;;;4.21;62.13;99558.02;130116;1264;107610;-78
2024/04/24 02:29:45;;;;;;;;;;;;;;;4.18;62.69;99550.69;130426;1259;108767;-77
2024/04/24 02:32:49;;;;;;;;;;;;;;;4.11;62.40;99554.65;130359;1259;109266;-77
2024/04/24 02:35:52;;;;;;;;;;;;;;;4.05;62.71;99550.00;130289;1262;106598;-77
2024/04/24 02:38:56;;;;;;;;;;;;;;;4.00;63.19;99546.42;130286;1261;107240;-77
2024/04/24 02:42:00;;;;;;;;;;;;;;;3.97;63.12;99540.35;130123;1261;107447;-78
2024/04/24 02:45:03;;;;;;;;;;;;;;;4.01;63.02;99538.23;130570;1262;107864;-78
2024/04/24 02:48:08;;;;;;;;;;;;;;;4.13;62.86;99532.29;130308;1262;111294;-79
2024/04/24 02:51:12;;;;;;;;;;;;;;;4.25;62.90;99527.20;130559;1260;106773;-79
2024/04/24 02:54:15;;;;;;;;;;;;;;;4.33;62.79;99521.64;130353;1270;107289;-78
2024/04/24 02:57:19;;;;;;;;;;;;;;;4.41;62.78;99519.51;130344;1260;106538;-78
2024/04/24 03:00:23;;;;;;;;;;;;;;;4.51;62.84;99514.61;130266;1262;108788;-78
2024/04/24 03:03:26;;;;;;;;;;;;;;;4.53;63.39;99510.04;130322;1259;108437;-78
2024/04/24 03:06:30;;;;;;;;;;;;;;;4.45;64.10;99508.27;130297;1259;106775;-78
2024/04/24 03:09:33;;;;;;;;;;;;;;;4.41;63.81;99507.42;130261;1259;108626;-78
2024/04/24 03:12:37;;;;;;;;;;;;;;;4.43;63.61;99509.34;130400;1262;107020;-78
2024/04/24 03:15:41;;;;;;;;;;;;;;;4.44;63.81;99503.43;130338;1259;106984;-78
2024/04/24 03:18:44;;;;;;;;;;;;;;;4.46;63.38;99504.83;130291;1262;107752;-78
2024/04/24 03:21:48;;;;;;;;;;;;;;;4.44;63.34;99502.77;130321;1259;107568;-77
2024/04/24 03:24:52;;;;;;;;;;;;;;;4.42;63.58;99496.95;130316;1262;106965;-79
2024/04/24 03:27:55;;;;;;;;;;;;;;;4.38;63.39;99496.51;130301;1262;107792;-78
2024/04/24 03:31:00;;;;;;;;;;;;;;;4.33;63.58;99495.15;130293;1262;106483;-80
2024/04/24 03:34:04;;;;;;;;;;;;;;;4.33;63.64;99492.55;130483;1262;106640;-79
2024/04/24 03:37:07;;;;;;;;;;;;;;;4.30;63.61;99485.90;130433;1262;107658;-79
2024/04/24 03:40:11;;;;;;;;;;;;;;;4.29;63.64;99476.86;130377;1260;106349;-79
2024/04/24 03:43:15;;;;;;;;;;;;;;;4.29;63.54;99472.25;130426;1262;107940;-79
2024/04/24 03:46:19;;;;;;;;;;;;;;;4.19;64.17;99464.39;130391;1262;106314;-79
2024/04/24 03:49:22;;;;;;;;;;;;;;;4.09;64.02;99463.27;130291;1262;106967;-79
2024/04/24 03:52:26;;;;;;;;;;;;;;;4.04;64.41;99462.96;130362;1262;106687;-79
2024/04/24 03:55:30;;;;;;;;;;;;;;;4.03;64.27;99459.45;130378;1259;106868;-79
2024/04/24 03:58:33;;;;;;;;;;;;;;;4.03;64.49;99456.23;130381;1259;107824;-79
2024/04/24 04:01:37;;;;;;;;;;;;;;;4.01;64.49;99450.55;130293;1260;107400;-79
2024/04/24 04:04:40;;;;;;;;;;;;;;;4.00;64.28;99448.44;130249;1262;106531;-79
2024/04/24 04:07:44;;;;;;;;;;;;;;;4.01;64.83;99446.17;130263;1262;106871;-79
2024/04/24 04:10:48;;;;;;;;;;;;;;;4.03;64.40;99443.59;130381;1262;106624;-79
2024/04/24 04:13:53;;;;;;;;;;;;;;;4.08;64.40;99438.74;130398;1260;106606;-79
2024/04/24 04:16:57;;;;;;;;;;;;;;;4.16;64.34;99441.76;130353;1262;107470;-79
2024/04/24 04:20:00;;;;;;;;;;;;;;;4.20;64.56;99436.10;130258;1262;106545;-80
2024/04/24 04:23:04;;;;;;;;;;;;;;;4.20;64.53;99433.30;130359;1262;108522;-79
2024/04/24 04:26:08;;;;;;;;;;;;;;;4.23;64.67;99429.52;130308;1259;106272;-79
2024/04/24 04:29:11;;;;;;;;;;;;;;;4.28;64.49;99430.77;130334;1272;107925;-79
2024/04/24 04:32:15;;;;;;;;;;;;;;;4.39;64.46;99423.61;130295;1260;108066;-82
2024/04/24 04:35:19;;;;;;;;;;;;;;;4.41;64.54;99425.29;130463;1262;108689;-83
2024/04/24 04:38:22;;;;;;;;;;;;;;;4.48;64.45;99425.61;130588;1258;106226;-82
2024/04/24 04:41:26;;;;;;;;;;;;;;;4.52;64.42;99423.59;130653;1263;107677;-82
2024/04/24 04:44:30;;;;;;;;;;;;;;;4.49;64.60;99423.92;130625;1262;108457;-82
2024/04/24 04:47:33;;;;;;;;;;;;;;;4.44;65.13;99419.39;130551;1259;107704;-81
2024/04/24 04:50:37;;;;;;;;;;;;;;;4.41;65.39;99417.76;130552;1262;107649;-82
2024/04/24 04:53:40;;;;;;;;;;;;;;;4.39;65.33;99413.88;130533;1262;107729;-82
2024/04/24 04:56:44;;;;;;;;;;;;;;;4.45;65.53;99418.64;130522;1262;107794;-82
2024/04/24 04:59:48;;;;;;;;;;;;;;;4.46;65.49;99418.57;130517;1259;108698;-82
2024/04/24 05:02:52;;;;;;;;;;;;;;;4.45;65.67;99417.70;130514;1262;106831;-82
2024/04/24 05:05:57;;;;;;;;;;;;;;;4.51;65.18;99412.84;130540;1261;108257;-83
2024/04/24 05:09:00;;;;;;;;;;;;;;;4.57;65.27;99408.04;130481;1260;108667;-82
2024/04/24 05:12:04;;;;;;;;;;;;;;;4.68;65.55;99406.52;130527;1262;107689;-82
2024/04/24 05:15:08;;;;;;;;;;;;;;;4.76;65.63;99395.45;130541;1259;107837;-82
2024/04/24 05:18:13;;;;;;;;;;;;;;;4.82;65.58;99385.62;130565;1262;108722;-82
2024/04/24 05:21:16;;;;;;;;;;;;;;;4.82;65.42;99384.74;130495;1260;107821;-82
2024/04/24 05:24:20;;;;;;;;;;;;;;;4.83;65.95;99380.73;130702;1260;108851;-82
2024/04/24 05:30:45;;;;;;;;;;;;;;;4.94;65.73;99381.46;130692;1258;106362;-83
2024/04/24 05:33:48;;;;;;;;;;;;;;;4.97;65.79;99378.27;130677;1259;107228;-82
2024/04/24 05:36:52;;;;;;;;;;;;;;;4.97;65.32;99372.09;130734;1260;107299;-82
2024/04/24 05:39:56;;;;;;;;;;;;;;;4.96;65.74;99364.44;130771;1262;106358;-82
2024/04/24 05:42:59;;;;;;;;;;;;;;;5.00;65.74;99355.09;130711;1261;107654;-82
2024/04/24 05:46:03;;;;;;;;;;;;;;;5.04;65.91;99352.95;130645;1258;106732;-83
2024/04/24 05:49:07;;;;;;;;;;;;;;;5.06;65.82;99350.98;130652;1262;107552;-82
2024/04/24 05:52:10;;;;;;;;;;;;;;;5.10;65.73;99354.33;130577;1259;107731;-82
2024/04/24 05:55:14;;;;;;;;;;;;;;;5.08;65.95;99351.47;130578;1259;108605;-81
2024/04/24 05:58:17;;;;;;;;;;;;;;;5.04;65.96;99348.57;130524;1261;107021;-82
2024/04/24 06:01:21;;;;;;;;;;;;;;;5.02;66.27;99345.71;130672;1259;108689;-81
2024/04/24 06:04:25;;;;;;;;;;;;;;;5.00;66.42;99341.28;130741;1257;108675;-80
2024/04/24 06:07:29;;;;;;;;;;;;;;;5.01;66.66;99338.25;130363;1272;108433;-78
2024/04/24 06:10:41;;;;;;;;;;;;;;;5.06;65.82;99336.22;130481;1259;106780;-80
2024/04/24 06:13:46;;;;;;;;;;;;;;;5.20;65.97;99337.17;130081;1264;108624;-79
2024/04/24 06:16:54;;;;;;;;;;;;;;;5.39;65.57;99333.49;130111;1257;109361;-80
2024/04/24 06:19:58;;;;;;;;;;;;;;;5.49;65.70;99330.49;130221;1259;107731;-79
2024/04/24 06:23:03;;;;;;;;;;;;;;;5.60;65.70;99323.11;130254;1262;106291;-79
2024/04/24 06:26:06;;;;;;;;;;;;;;;5.71;65.58;99322.17;130347;1262;107827;-79
2024/04/24 06:29:10;;;;;;;;;;;;;;;5.88;65.39;99320.09;130402;1263;107310;-79
2024/04/24 06:32:14;;;;;;;;;;;;;;;6.01;65.10;99321.55;130378;1258;108707;-79
2024/04/24 06:35:19;;;;;;;;;;;;;;;5.97;64.85;99317.23;130297;1262;108385;-79
2024/04/24 06:38:23;;;;;;;;;;;;;;;5.93;65.20;99308.19;130282;1257;108379;-79
2024/04/24 06:41:27;;;;;;;;;;;;;;;6.03;65.07;99303.21;130203;1262;107208;-79
2024/04/24 06:44:31;;;;;;;;;;;;;;;6.07;64.78;99297.83;130266;1263;106977;-79
2024/04/24 06:47:36;;;;;;;;;;;;;;;6.09;64.49;99297.14;130254;1262;107600;-79
2024/04/24 06:50:40;;;;;;;;;;;;;;;6.17;64.79;99290.00;130236;1263;107233;-79
2024/04/24 06:53:46;;;;;;;;;;;;;;;6.16;64.68;99283.76;130147;1262;106533;-79
2024/04/24 06:56:49;;;;;;;;;;;;;;;6.15;64.65;99276.10;130219;1259;108730;-78
2024/04/24 06:59:53;;;;;;;;;;;;;;;6.21;64.61;99266.83;130204;1262;107744;-79
2024/04/24 07:02:57;;;;;;;;;;;;;;;6.25;64.19;99262.86;130208;1262;105465;-79
2024/04/24 07:06:01;;;;;;;;;;;;;;;6.29;64.34;99261.04;130260;1265;107672;-79
2024/04/24 07:09:04;;;;;;;;;;;;;;;6.30;64.30;99259.08;130271;1262;106860;-79
2024/04/24 07:12:09;;;;;;;;;;;;;;;6.39;64.32;99258.87;130147;1265;107130;-78
2024/04/24 07:15:13;;;;;;;;;;;;;;;6.50;64.42;99258.90;130325;1262;106649;-80
2024/04/24 07:18:17;;;;;;;;;;;;;;;6.66;64.04;99259.25;130117;1262;108773;-80
2024/04/24 07:21:21;;;;;;;;;;;;;;;6.68;64.05;99255.10;130303;1260;109156;-79
2024/04/24 07:24:24;;;;;;;;;;;;;;;6.76;64.10;99255.08;130391;1262;106589;-79
2024/04/24 07:27:29;;;;;;;;;;;;;;;6.84;63.44;99248.95;130255;1260;107014;-79
2024/04/24 07:30:36;;;;;;;;;;;;;;;6.86;63.73;99246.61;130158;1260;108685;-79
2024/04/24 07:33:40;;;;;;;;;;;;;;;6.92;63.66;99240.79;130280;1262;106971;-79
2024/04/24 07:36:45;;;;;;;;;;;;;;;7.03;63.87;99237.71;130218;1262;108679;-79
2024/04/24 07:39:49;;;;;;;;;;;;;;;7.14;63.25;99235.17;130236;1262;106483;-79
2024/04/24 07:42:52;;;;;;;;;;;;;;;7.15;63.26;99226.92;130319;1257;109002;-79
2024/04/24 07:45:56;;;;;;;;;;;;;;;7.22;63.09;99221.13;130362;1260;106954;-79
2024/04/24 07:49:00;;;;;;;;;;;;;;;7.37;63.38;99216.54;130239;1262;108648;-79
2024/04/24 07:52:05;;;;;;;;;;;;;;;7.53;63.62;99215.42;130106;1266;108385;-79
2024/04/24 07:55:10;;;;;;;;;;;;;;;7.65;62.93;99210.63;130081;1262;107342;-80
2024/04/24 07:58:14;;;;;;;;;;;;;;;7.75;62.69;99206.42;130088;1265;109290;-79
2024/04/24 08:01:21;;;;;;;;;;;;;;;8.00;62.90;99202.87;130104;1260;108652;-78
2024/04/24 08:04:25;;;;;;;;;;;;;;;8.12;61.94;99192.47;130239;1260;106497;-79
2024/04/24 08:07:29;;;;;;;;;;;;;;;8.20;62.23;99191.42;130126;1262;107279;-79
2024/04/24 08:10:34;;;;;;;;;;;;;;;8.25;62.14;99187.30;129964;1259;108488;-79
2024/04/24 08:13:38;;;;;;;;;;;;;;;8.33;62.17;99184.55;130207;1262;107894;-78
2024/04/24 08:16:50;;;;;;;;;;;;;;;8.39;61.72;99180.88;130108;1262;107687;-79
2024/04/24 08:19:54;;;;;;;;;;;;;;;8.44;61.49;99180.56;130221;1262;107638;-80
2024/04/24 08:23:04;;;;;;;;;;;;;;;8.52;61.73;99173.45;129980;1265;106613;-79
2024/04/24 08:26:08;;;;;;;;;;;;;;;8.63;61.97;99171.34;130165;1263;107836;-79
2024/04/24 08:29:11;;;;;;;;;;;;;;;8.77;61.31;99172.04;130175;1262;108426;-79
2024/04/24 08:32:15;;;;;;;;;;;;;;;8.80;61.40;99170.02;130327;1264;106777;-79
2024/04/24 08:35:19;;;;;;;;;;;;;;;8.97;61.80;99158.64;130412;1262;106357;-78
2024/04/24 08:38:22;;;;;;;;;;;;;;;9.17;61.36;99153.40;130240;1263;107835;-78
2024/04/24 08:41:27;;;;;;;;;;;;;;;9.35;61.35;99149.29;130236;1259;107629;-77
2024/04/24 08:44:31;;;;;;;;;;;;;;;9.39;60.49;99150.58;130312;1263;108681;-79
2024/04/24 08:47:35;;;;;;;;;;;;;;;9.44;60.66;99141.66;130281;1265;107764;-79
2024/04/24 08:50:39;;;;;;;;;;;;;;;9.62;61.29;99137.59;130299;1260;107847;-79
2024/04/24 08:53:46;;;;;;;;;;;;;;;9.88;61.75;99129.60;130251;1262;107751;-79
2024/04/24 08:56:53;;;;;;;;;;;;;;;10.08;59.99;99125.55;130194;1262;108735;-79
2024/04/24 08:59:59;;;;;;;;;;;;;;;10.04;59.82;99124.70;130266;1259;107690;-79
2024/04/24 09:03:05;;;;;;;;;;;;;;;10.06;60.58;99120.42;130252;1259;108677;-79
2024/04/24 09:06:10;;;;;;;;;;;;;;;10.09;59.54;99123.80;130201;1262;107747;-79
2024/04/24 09:09:14;;;;;;;;;;;;;;;10.20;60.44;99116.00;130299;1262;108789;-79
2024/04/24 09:12:18;;;;;;;;;;;;;;;10.37;60.37;99114.88;130222;1265;106437;-79
2024/04/24 09:15:24;;;;;;;;;;;;;;;10.52;60.25;99113.16;130247;1266;108351;-79
2024/04/24 09:18:27;;;;;;;;;;;;;;;10.67;59.97;99109.77;130239;1262;108693;-79
2024/04/24 09:21:31;;;;;;;;;;;;;;;10.74;59.36;99106.04;130199;1262;107865;-78
2024/04/24 09:24:36;;;;;;;;;;;;;;;10.82;60.31;99102.25;129973;1265;107603;-77
2024/04/24 09:27:39;;;;;;;;;;;;;;;11.07;60.81;99097.58;130167;1264;107761;-77
2024/04/24 09:30:43;;;;;;;;;;;;;;;11.28;60.26;99095.43;130259;1263;107649;-78
2024/04/24 09:33:47;;;;;;;;;;;;;;;11.42;60.52;99085.27;130245;1259;107862;-78
2024/04/24 09:36:51;;;;;;;;;;;;;;;11.61;60.37;99079.19;130299;1265;108513;-78
2024/04/24 09:39:54;;;;;;;;;;;;;;;11.84;59.96;99075.92;130324;1269;106169;-78
2024/04/24 09:42:58;;;;;;;;;;;;;;;12.00;59.70;99073.86;130208;1265;107400;-78
2024/04/24 09:46:03;;;;;;;;;;;;;;;12.00;58.76;99073.77;130245;1264;106824;-78
2024/04/24 09:49:07;;;;;;;;;;;;;;;12.03;58.91;99071.38;130330;1263;106883;-78
2024/04/24 09:52:15;;;;;;;;;;;;;;;12.04;57.76;99070.92;130193;1259;108768;-80
2024/04/24 09:55:20;;;;;;;;;;;;;;;11.99;58.56;99067.81;130269;1260;108755;-78
2024/04/24 09:58:24;;;;;;;;;;;;;;;11.99;58.94;99068.71;130142;1262;108529;-78
2024/04/24 10:01:30;;;;;;;;;;;;;;;12.00;58.61;99068.23;130238;1262;107114;-78
2024/04/24 10:04:35;;;;;;;;;;;;;;;11.87;57.23;99067.66;130185;1262;107651;-78
2024/04/24 10:07:41;;;;;;;;;;;;;;;11.62;57.37;99060.48;130241;1264;106479;-79
2024/04/24 10:10:48;;;;;;;;;;;;;;;11.39;57.68;99063.06;130239;1262;106614;-78
2024/04/24 10:13:54;;;;;;;;;;;;;;;11.30;58.08;99061.79;130285;1262;106465;-78
2024/04/24 10:16:58;;;;;;;;;;;;;;;11.26;58.37;99059.80;130237;1262;108725;-78
2024/04/24 10:20:02;;;;;;;;;;;;;;;11.29;58.77;99055.15;130220;1265;106740;-78
2024/04/24 10:23:07;;;;;;;;;;;;;;;11.28;57.90;99051.92;130217;1258;107196;-78
2024/04/24 10:26:11;;;;;;;;;;;;;;;11.21;58.61;99055.09;130221;1262;109453;-78
2024/04/24 10:29:18;;;;;;;;;;;;;;;11.21;58.10;99054.42;130283;1262;108372;-78
2024/04/24 10:32:22;;;;;;;;;;;;;;;11.03;57.40;99058.02;130298;1265;106842;-78
2024/04/24 10:35:27;;;;;;;;;;;;;;;10.79;57.47;99062.09;130290;1263;107068;-78
2024/04/24 10:38:33;;;;;;;;;;;;;;;10.66;58.22;99061.55;130258;1263;108561;-78
2024/04/24 10:41:37;;;;;;;;;;;;;;;10.60;58.56;99059.40;130244;1273;107629;-78
2024/04/24 10:44:41;;;;;;;;;;;;;;;10.56;58.47;99057.46;130238;1262;106686;-78
2024/04/24 10:47:47;;;;;;;;;;;;;;;10.50;58.17;99055.57;130227;1272;107788;-78
2024/04/24 10:50:51;;;;;;;;;;;;;;;10.46;58.68;99054.17;130204;1273;106626;-78
2024/04/24 10:53:55;;;;;;;;;;;;;;;10.46;58.87;99053.81;130213;1261;107571;-78
2024/04/24 10:56:59;;;;;;;;;;;;;;;10.46;58.52;99052.46;130176;1265;108820;-78
2024/04/24 11:00:12;;;;;;;;;;;;;;;10.43;58.66;99045.41;130179;1264;106545;-78
2024/04/24 11:03:17;;;;;;;;;;;;;;;10.39;58.78;99041.39;130179;1265;106798;-78
2024/04/24 11:06:21;;;;;;;;;;;;;;;10.44;59.16;99038.33;130216;1260;107668;-78
2024/04/24 11:09:25;;;;;;;;;;;;;;;10.53;58.52;99034.06;130283;1271;108841;-79
2024/04/24 11:12:29;;;;;;;;;;;;;;;10.53;57.87;99031.77;130178;1263;107683;-78
2024/04/24 11:15:35;;;;;;;;;;;;;;;10.57;57.61;99029.85;130243;1261;108744;-78
2024/04/24 11:18:39;;;;;;;;;;;;;;;10.62;57.80;99028.58;130247;1262;107838;-78
2024/04/24 11:21:42;;;;;;;;;;;;;;;10.66;57.14;99023.33;130220;1273;108790;-78
2024/04/24 11:24:46;;;;;;;;;;;;;;;10.66;56.91;99022.58;130157;1262;106555;-78
2024/04/24 11:27:49;;;;;;;;;;;;;;;10.70;57.16;99023.41;130272;1263;107852;-78
2024/04/24 11:30:53;;;;;;;;;;;;;;;10.64;56.97;99021.77;130259;1262;107716;-78
2024/04/24 11:33:57;;;;;;;;;;;;;;;10.58;57.10;99021.17;130195;1272;108672;-78
2024/04/24 11:37:00;;;;;;;;;;;;;;;10.56;57.72;99022.33;130314;1260;108748;-78
2024/04/24 11:40:05;;;;;;;;;;;;;;;10.57;57.25;99022.25;130398;1264;107787;-78
2024/04/24 11:43:09;;;;;;;;;;;;;;;10.55;57.18;99019.77;130382;1262;108621;-78
2024/04/24 11:46:13;;;;;;;;;;;;;;;10.54;57.44;99018.98;130382;1262;106465;-78
2024/04/24 11:49:18;;;;;;;;;;;;;;;10.43;56.83;99020.47;130384;1261;107767;-79
2024/04/24 11:52:23;;;;;;;;;;;;;;;10.26;57.42;99020.84;130425;1262;106871;-78
2024/04/24 11:55:27;;;;;;;;;;;;;;;10.17;57.58;99023.71;130289;1267;107637;-78
2024/04/24 11:58:31;;;;;;;;;;;;;;;10.13;58.05;99021.52;130348;1263;108838;-78
2024/04/24 12:01:35;;;;;;;;;;;;;;;10.15;58.00;99021.61;130424;1262;107784;-78
2024/04/24 12:04:44;;;;;;;;;;;;;;;10.14;57.98;99022.98;130531;1262;106722;-79
2024/04/24 12:07:48;;;;;;;;;;;;;;;10.15;58.09;99020.17;130453;1257;107879;-79
2024/04/24 12:10:56;;;;;;;;;;;;;;;10.18;58.45;99015.70;130303;1263;108583;-78
2024/04/24 12:14:00;;;;;;;;;;;;;;;10.21;58.17;99013.86;130441;1264;108641;-78
2024/04/24 12:17:04;;;;;;;;;;;;;;;10.25;57.67;99010.88;130330;1262;108706;-78
2024/04/24 12:20:08;;;;;;;;;;;;;;;10.24;57.72;99009.73;130363;1266;108640;-78
2024/04/24 12:23:12;;;;;;;;;;;;;;;10.21;57.83;99010.29;130354;1262;106789;-78
2024/04/24 12:26:15;;;;;;;;;;;;;;;10.22;58.00;99006.61;130381;1267;107825;-78
2024/04/24 12:29:19;;;;;;;;;;;;;;;10.19;57.85;99007.64;130360;1263;107706;-78
2024/04/24 12:32:23;;;;;;;;;;;;;;;10.21;57.78;99004.05;130458;1271;107987;-78
2024/04/24 12:35:27;;;;;;;;;;;;;;;10.29;58.14;99007.42;130290;1263;106660;-78
2024/04/24 12:38:30;;;;;;;;;;;;;;;10.45;58.20;99003.23;130311;1262;107680;-78
2024/04/24 12:41:35;;;;;;;;;;;;;;;10.54;57.81;98997.77;130354;1271;108310;-78
2024/04/24 12:44:39;;;;;;;;;;;;;;;10.65;57.70;98993.76;130308;1262;107661;-78
2024/04/24 12:47:43;;;;;;;;;;;;;;;10.69;57.68;98988.45;130242;1264;105979;-78
2024/04/24 12:50:48;;;;;;;;;;;;;;;10.68;58.04;98988.71;130219;1264;107472;-77
2024/04/24 12:53:51;;;;;;;;;;;;;;;10.78;58.38;98984.95;130372;1262;106434;-77
2024/04/24 12:56:55;;;;;;;;;;;;;;;10.88;57.95;98985.64;130371;1263;106747;-78
2024/04/24 12:59:59;;;;;;;;;;;;;;;11.00;58.03;98983.83;130438;1270;107782;-77
2024/04/24 13:03:02;;;;;;;;;;;;;;;11.09;58.03;98985.33;130454;1262;106078;-77
2024/04/24 13:06:06;;;;;;;;;;;;;;;11.12;57.70;98980.55;130206;1265;107722;-80
2024/04/24 13:09:10;;;;;;;;;;;;;;;11.06;57.90;98980.62;130232;1271;107859;-77
2024/04/24 13:12:13;;;;;;;;;;;;;;;10.92;57.35;98978.88;130192;1262;108665;-77
2024/04/24 13:15:17;;;;;;;;;;;;;;;10.74;57.89;98972.55;130177;1263;107347;-78
2024/04/24 13:18:21;;;;;;;;;;;;;;;10.65;58.22;98971.12;130239;1271;107373;-77
2024/04/24 13:21:24;;;;;;;;;;;;;;;10.62;58.43;98968.82;130283;1273;108777;-78
2024/04/24 13:24:28;;;;;;;;;;;;;;;10.51;58.08;98966.20;130187;1263;108760;-77
2024/04/24 13:27:31;;;;;;;;;;;;;;;10.43;58.44;98965.52;130238;1262;106489;-77
2024/04/24 13:30:35;;;;;;;;;;;;;;;10.40;58.47;98963.06;130172;1273;106412;-78
2024/04/24 13:33:39;;;;;;;;;;;;;;;10.47;58.56;98958.39;130225;1264;107895;-79
2024/04/24 13:36:42;;;;;;;;;;;;;;;10.48;58.53;98956.40;130203;1266;108752;-78
2024/04/24 13:39:47;;;;;;;;;;;;;;;10.49;58.83;98955.63;130213;1266;108503;-78
2024/04/24 13:42:51;;;;;;;;;;;;;;;10.44;58.68;98957.25;130231;1262;106628;-79
2024/04/24 13:45:55;;;;;;;;;;;;;;;10.39;59.31;98956.92;130141;1272;107556;-78
2024/04/24 13:49:01;;;;;;;;;;;;;;;10.29;59.04;98957.06;130190;1262;108765;-78
2024/04/24 13:52:05;;;;;;;;;;;;;;;10.20;59.12;98960.21;130278;1271;106777;-78
2024/04/24 13:55:09;;;;;;;;;;;;;;;10.17;59.41;98958.48;130148;1263;106363;-77
2024/04/24 13:58:12;;;;;;;;;;;;;;;10.15;59.06;98960.27;130323;1269;108801;-77
2024/04/24 14:01:16;;;;;;;;;;;;;;;10.12;59.11;98960.55;130264;1263;108695;-77
2024/04/24 14:04:29;;;;;;;;;;;;;;;10.13;59.22;98961.59;130146;1264;108568;-80
2024/04/24 14:07:33;;;;;;;;;;;;;;;10.15;59.22;98958.77;130171;1259;108453;-80
2024/04/24 14:10:37;;;;;;;;;;;;;;;10.17;59.40;98955.48;130168;1273;107726;-79
2024/04/24 14:13:42;;;;;;;;;;;;;;;10.15;59.22;98950.86;130170;1272;106692;-78
2024/04/24 14:16:46;;;;;;;;;;;;;;;10.18;58.94;98947.36;130218;1266;106663;-79
2024/04/24 14:19:54;;;;;;;;;;;;;;;10.17;58.46;98949.17;130131;1263;107541;-78
2024/04/24 14:22:59;;;;;;;;;;;;;;;10.17;58.87;98946.76;130132;1263;106521;-80
2024/04/24 14:26:03;;;;;;;;;;;;;;;10.17;58.64;98946.23;130180;1264;107611;-79
2024/04/24 14:29:13;;;;;;;;;;;;;;;10.19;59.16;98944.73;130192;1261;107700;-77
2024/04/24 14:32:21;;;;;;;;;;;;;;;10.14;59.26;98945.45;130047;1261;107552;-79
2024/04/24 14:35:26;;;;;;;;;;;;;;;10.11;59.25;98942.45;130135;1264;108064;-79
2024/04/24 14:38:30;;;;;;;;;;;;;;;10.05;59.10;98944.23;130156;1268;106737;-77
2024/04/24 14:41:33;;;;;;;;;;;;;;;10.05;59.27;98937.54;130280;1263;106322;-77
2024/04/24 14:44:37;;;;;;;;;;;;;;;10.06;59.32;98937.27;130292;1264;107157;-77
2024/04/24 14:47:40;;;;;;;;;;;;;;;10.00;58.91;98933.84;130149;1263;170299;-77
2024/04/24 14:50:47;;;;;;;;;;;;;;;9.97;59.28;98931.58;130075;1263;106562;-78
2024/04/24 14:53:53;;;;;;;;;;;;;;;10.01;59.32;98929.81;130077;1264;108474;-78
2024/04/24 14:56:57;;;;;;;;;;;;;;;10.04;59.20;98926.27;130391;1263;107782;-77
2024/04/24 15:00:01;;;;;;;;;;;;;;;10.01;59.18;98923.56;130152;1263;108489;-78
2024/04/24 15:03:05;;;;;;;;;;;;;;;10.06;59.18;98922.18;130131;1264;108337;-78
2024/04/24 15:06:09;;;;;;;;;;;;;;;10.07;58.62;98922.53;130294;1261;108015;-78
2024/04/24 15:09:13;;;;;;;;;;;;;;;10.05;58.70;98923.89;130270;1264;108602;-77
2024/04/24 15:12:17;;;;;;;;;;;;;;;10.04;58.44;98919.20;130142;1261;106757;-77
2024/04/24 15:15:22;;;;;;;;;;;;;;;10.08;58.66;98919.98;130204;1261;108003;-78
2024/04/24 15:18:28;;;;;;;;;;;;;;;10.07;58.91;98918.67;130223;1264;106440;-78
2024/04/24 15:21:38;;;;;;;;;;;;;;;10.04;58.76;98915.92;130416;1263;108472;-77
2024/04/24 15:24:41;;;;;;;;;;;;;;;9.96;58.79;98914.61;130777;1263;109288;-78
2024/04/24 15:27:45;;;;;;;;;;;;;;;9.90;58.85;98914.94;130438;1266;106280;-77
2024/04/24 15:30:49;;;;;;;;;;;;;;;9.86;58.74;98914.88;130434;1257;106843;-77
2024/04/24 15:33:53;;;;;;;;;;;;;;;9.80;58.83;98915.16;130481;1258;106431;-77
2024/04/24 15:36:56;;;;;;;;;;;;;;;9.73;58.83;98910.86;130725;1258;106713;-77
2024/04/24 15:40:00;;;;;;;;;;;;;;;9.70;58.95;98910.87;130795;1264;106839;-77
2024/04/24 15:43:04;;;;;;;;;;;;;;;9.69;59.23;98908.22;130527;1266;108662;-77
2024/04/24 15:46:08;;;;;;;;;;;;;;;9.63;58.95;98906.23;130545;1273;108434;-79